createdAt,value
2022-11-12T00:03:26.726Z,78.43
2022-11-12T00:08:28.471Z,78.30
2022-11-12T00:13:30.721Z,78.40
2022-11-12T00:18:32.195Z,78.72
2022-11-12T00:23:33.603Z,78.84
2022-11-12T00:28:37.981Z,78.75
2022-11-12T00:33:41.596Z,78.95
2022-11-12T00:38:43.022Z,78.91
2022-11-12T00:43:44.457Z,78.96
2022-11-12T00:48:45.889Z,78.73
2022-11-12T00:53:49.102Z,78.82
2022-11-12T00:58:50.552Z,78.93
2022-11-12T01:03:52.651Z,79.04
2022-11-12T01:08:55.534Z,79.10
2022-11-12T01:14:00.456Z,79.05
2022-11-12T01:19:04.151Z,79.05
2022-11-12T01:24:05.934Z,79.12
2022-11-12T01:29:07.726Z,79.10
2022-11-12T01:34:09.823Z,79.54
2022-11-12T01:39:11.425Z,79.50
2022-11-12T01:44:17.489Z,79.32
2022-11-12T01:49:30.846Z,79.62
2022-11-12T01:54:32.342Z,79.64
2022-11-12T01:59:40.630Z,79.76
2022-11-12T02:04:43.515Z,79.97
2022-11-12T02:09:45.112Z,80.08
2022-11-12T02:14:46.518Z,80.23
2022-11-12T02:19:47.932Z,80.20
2022-11-12T02:24:49.331Z,80.05
2022-11-12T02:29:51.162Z,80.38
2022-11-12T02:34:52.560Z,80.18
2022-11-12T02:39:54.014Z,80.15
2022-11-12T02:44:56.551Z,80.47
2022-11-12T02:49:58.404Z,80.21
2022-11-12T02:54:59.807Z,80.53
2022-11-12T03:00:01.214Z,80.58
2022-11-12T03:05:02.668Z,80.36
2022-11-12T03:10:05.753Z,80.01
2022-11-12T03:15:07.464Z,79.31
2022-11-12T03:20:10.106Z,78.92
2022-11-12T03:25:11.528Z,78.74
2022-11-12T03:30:12.992Z,78.40
2022-11-12T03:35:14.512Z,77.50
2022-11-12T03:40:17.758Z,77.48
2022-11-12T03:45:21.408Z,77.61
2022-11-12T03:50:25.851Z,77.76
2022-11-12T03:55:28.835Z,77.71
2022-11-12T04:00:30.360Z,77.89
2022-11-12T04:05:50.596Z,78.36
2022-11-12T04:10:52.616Z,78.57
2022-11-12T04:16:14.969Z,78.82
2022-11-12T04:21:34.698Z,78.90
2022-11-12T04:26:36.104Z,78.94
2022-11-12T04:31:37.508Z,79.06
2022-11-12T04:36:38.906Z,79.19
2022-11-12T04:41:58.762Z,79.48
2022-11-12T04:47:00.158Z,79.67
2022-11-12T04:52:07.229Z,79.87
2022-11-12T04:57:08.654Z,79.95
2022-11-12T05:02:10.182Z,80.27
2022-11-12T05:07:12.019Z,80.34
2022-11-12T05:12:13.491Z,80.14
2022-11-12T05:17:15.259Z,80.19
2022-11-12T05:22:40.321Z,80.22
2022-11-12T05:27:38.299Z,80.48
2022-11-12T05:32:39.718Z,80.39
2022-11-12T05:37:41.121Z,80.21
2022-11-12T05:42:42.533Z,80.43
2022-11-12T05:47:43.930Z,79.99
2022-11-12T05:52:45.435Z,80.15
2022-11-12T05:57:46.838Z,80.17
2022-11-12T06:02:48.283Z,80.29
2022-11-12T06:07:49.706Z,80.30
2022-11-12T06:12:52.093Z,80.29
2022-11-12T06:17:54.422Z,80.00
2022-11-12T06:22:56.967Z,80.66
2022-11-12T06:27:58.385Z,80.25
2022-11-12T06:32:59.830Z,80.23
2022-11-12T06:38:01.242Z,80.29
2022-11-12T06:43:02.655Z,80.03
2022-11-12T06:48:04.115Z,80.17
2022-11-12T06:53:05.622Z,80.01
2022-11-12T06:58:07.094Z,79.98
2022-11-12T07:03:10.065Z,79.73
2022-11-12T07:08:11.627Z,79.72
2022-11-12T07:13:13.083Z,79.73
2022-11-12T07:18:14.795Z,79.59
2022-11-12T07:23:16.232Z,79.56
2022-11-12T07:28:17.619Z,79.30
2022-11-12T07:33:19.023Z,79.24
2022-11-12T07:38:20.430Z,79.30
2022-11-12T07:43:21.860Z,79.16
2022-11-12T07:48:23.420Z,78.77
2022-11-12T07:53:26.175Z,78.34
2022-11-12T07:58:30.567Z,78.22
2022-11-12T08:03:32.114Z,77.60
2022-11-12T08:08:33.601Z,76.75
2022-11-12T08:13:35.051Z,76.02
2022-11-12T08:18:36.576Z,75.32
2022-11-12T08:23:38.091Z,75.00
2022-11-12T08:28:40.213Z,75.16
2022-11-12T08:33:42.123Z,73.62
2022-11-12T08:38:43.778Z,73.76
2022-11-12T08:43:45.296Z,71.95
2022-11-12T08:48:46.726Z,73.07
2022-11-12T08:53:48.128Z,71.80
2022-11-12T08:58:49.527Z,69.26
2022-11-12T09:03:51.068Z,68.36
2022-11-12T09:08:52.527Z,69.17
2022-11-12T09:13:54.389Z,68.54
2022-11-12T09:18:55.866Z,68.52
2022-11-12T09:23:57.308Z,67.06
2022-11-12T09:28:58.733Z,68.04
2022-11-12T09:34:00.247Z,67.30
2022-11-12T09:39:01.760Z,66.34
2022-11-12T09:44:15.809Z,67.45
2022-11-12T09:49:26.055Z,65.30
2022-11-12T09:54:31.326Z,65.07
2022-11-12T09:59:38.098Z,65.86
2022-11-12T10:04:53.557Z,66.69
2022-11-12T10:10:15.014Z,66.66
2022-11-12T10:15:55.567Z,65.49
2022-11-12T10:21:08.986Z,64.81
2022-11-12T10:26:22.719Z,65.80
2022-11-12T10:31:24.190Z,65.59
2022-11-12T10:36:35.818Z,63.99
2022-11-12T10:41:37.288Z,65.16
2022-11-12T10:46:38.930Z,64.94
2022-11-12T10:51:40.763Z,65.60
2022-11-12T10:56:42.154Z,65.74
2022-11-12T11:01:46.108Z,65.84
2022-11-12T11:06:47.950Z,65.61
2022-11-12T11:11:53.591Z,65.61
2022-11-12T11:17:02.092Z,65.33
2022-11-12T11:22:36.549Z,64.33
2022-11-12T11:27:43.802Z,65.38
2022-11-12T11:33:03.750Z,65.07
2022-11-12T11:38:20.495Z,64.83
2022-11-12T11:43:40.919Z,64.30
2022-11-12T11:49:13.754Z,63.62
2022-11-12T11:54:33.521Z,62.94
2022-11-12T11:59:45.867Z,61.82
2022-11-12T12:05:17.642Z,62.63
2022-11-12T12:11:01.153Z,61.60
2022-11-12T12:16:20.013Z,62.24
2022-11-12T12:21:23.863Z,62.15
2022-11-12T12:26:52.492Z,63.47
2022-11-12T12:32:05.296Z,63.24
2022-11-12T12:37:21.046Z,63.41
2022-11-12T12:42:29.755Z,63.93
2022-11-12T12:47:38.320Z,63.45
2022-11-12T12:53:01.338Z,64.63
2022-11-12T12:58:02.825Z,64.39
2022-11-12T13:03:05.399Z,65.03
2022-11-12T13:08:34.718Z,65.49
2022-11-12T13:13:38.541Z,65.71
2022-11-12T13:18:40.144Z,65.49
2022-11-12T13:24:09.108Z,66.36
2022-11-12T13:29:29.163Z,66.64
2022-11-12T13:34:33.536Z,66.63
2022-11-12T13:39:36.341Z,66.77
2022-11-12T13:44:37.849Z,66.67
2022-11-12T13:49:39.426Z,66.88
2022-11-12T13:54:41.552Z,67.38
2022-11-12T13:59:43.013Z,67.95
2022-11-12T14:04:44.514Z,68.03
2022-11-12T14:09:52.417Z,68.45
2022-11-12T14:15:25.103Z,68.88
2022-11-12T14:20:36.237Z,68.91
2022-11-12T14:25:49.018Z,69.59
2022-11-12T14:30:50.467Z,70.05
2022-11-12T14:35:53.326Z,72.61
2022-11-12T14:40:58.178Z,73.10
2022-11-12T14:46:02.685Z,74.17
2022-11-12T14:51:09.361Z,75.30
2022-11-12T14:56:22.225Z,75.95
2022-11-12T15:06:58.481Z,77.12
2022-11-12T15:12:00.036Z,77.67
2022-11-12T15:17:03.334Z,77.94
2022-11-12T15:22:05.156Z,78.05
2022-11-12T15:27:42.441Z,78.54
2022-11-12T15:32:44.105Z,78.65
2022-11-12T15:37:45.579Z,79.12
2022-11-12T15:42:47.978Z,78.84
2022-11-12T15:47:49.395Z,79.36
2022-11-12T15:52:51.219Z,79.42
2022-11-12T15:57:53.043Z,80.17
2022-11-12T16:03:03.836Z,80.71
2022-11-12T16:08:05.548Z,80.58
2022-11-12T16:13:11.709Z,80.90
2022-11-12T16:18:13.311Z,80.64
2022-11-12T16:23:14.789Z,80.92
2022-11-12T16:28:18.520Z,81.26
2022-11-12T16:33:19.985Z,81.22
2022-11-12T16:38:21.834Z,81.90
2022-11-12T16:43:23.404Z,81.96
2022-11-12T16:48:25.117Z,82.13
2022-11-12T16:53:26.887Z,82.22
2022-11-12T16:58:28.748Z,82.45
2022-11-12T17:03:30.411Z,82.96
2022-11-12T17:08:34.048Z,83.38
2022-11-12T17:13:39.445Z,83.76
2022-11-12T17:18:40.974Z,83.79
2022-11-12T17:23:43.058Z,84.57
2022-11-12T17:28:45.268Z,84.24
2022-11-12T17:33:51.631Z,84.42
2022-11-12T17:38:55.201Z,84.21
2022-11-12T17:43:58.160Z,84.38
2022-11-12T17:48:59.592Z,84.40
2022-11-12T17:54:01.085Z,83.93
2022-11-12T17:59:03.648Z,84.21
2022-11-12T18:04:05.213Z,83.87
2022-11-12T18:09:11.695Z,83.68
2022-11-12T18:14:13.185Z,83.83
2022-11-12T18:19:15.679Z,84.08
2022-11-12T18:24:17.153Z,84.69
2022-11-12T18:29:18.638Z,84.85
2022-11-12T18:34:20.044Z,85.11
2022-11-12T18:39:21.533Z,85.08
2022-11-12T18:44:26.124Z,84.90
2022-11-12T18:49:27.759Z,85.50
2022-11-12T18:54:30.310Z,85.55
2022-11-12T18:59:32.593Z,85.73
2022-11-12T19:04:34.004Z,85.84
2022-11-12T19:09:35.423Z,85.85
2022-11-12T19:14:36.863Z,85.76
2022-11-12T19:19:38.451Z,86.38
2022-11-12T19:24:39.863Z,86.30
2022-11-12T19:29:41.311Z,86.04
2022-11-12T19:34:42.738Z,85.92
2022-11-12T19:39:44.208Z,86.29
2022-11-12T19:44:45.709Z,86.07
2022-11-12T19:49:47.168Z,85.87
2022-11-12T19:54:48.654Z,85.74
2022-11-12T19:59:50.123Z,86.01
2022-11-12T20:04:51.646Z,85.78
2022-11-12T20:09:57.983Z,86.01
2022-11-12T20:15:02.065Z,86.40
2022-11-12T20:20:04.412Z,86.27
2022-11-12T20:25:06.247Z,86.24
2022-11-12T20:30:08.376Z,86.46
2022-11-12T20:35:17.743Z,86.25
2022-11-12T20:40:22.417Z,86.06
2022-11-12T20:45:25.050Z,86.30
2022-11-12T20:50:26.480Z,86.17
2022-11-12T20:55:27.928Z,86.43
2022-11-12T21:00:29.356Z,86.31
2022-11-12T21:05:31.144Z,86.35
2022-11-12T21:10:32.563Z,86.39
2022-11-12T21:15:33.973Z,86.17
2022-11-12T21:20:35.384Z,86.33
2022-11-12T21:25:38.346Z,86.40
2022-11-12T21:30:40.202Z,86.38
2022-11-12T21:35:41.669Z,86.39
2022-11-12T21:40:43.089Z,86.30
2022-11-12T21:45:47.923Z,86.35
2022-11-12T21:50:49.348Z,86.43
2022-11-12T21:55:50.783Z,86.71
2022-11-12T22:00:52.190Z,86.90
2022-11-12T22:05:53.588Z,86.89
2022-11-12T22:11:02.562Z,87.34
2022-11-12T22:16:12.207Z,87.06
2022-11-12T22:21:17.248Z,87.03
2022-11-12T22:26:21.883Z,87.16
2022-11-12T22:31:27.060Z,87.49
2022-11-12T22:36:30.790Z,87.31
2022-11-12T22:41:32.607Z,87.72
2022-11-12T22:46:35.337Z,88.09
2022-11-12T22:51:36.743Z,88.45
2022-11-12T22:56:39.749Z,88.16
2022-11-12T23:01:41.296Z,88.45
2022-11-12T23:06:42.834Z,87.99
2022-11-12T23:11:44.312Z,88.18
2022-11-12T23:16:45.760Z,88.00
2022-11-12T23:21:47.201Z,88.39
2022-11-12T23:26:48.682Z,88.57
2022-11-12T23:31:50.101Z,88.47
2022-11-12T23:36:51.506Z,88.28
2022-11-12T23:41:52.955Z,87.98
2022-11-12T23:46:54.376Z,88.16
2022-11-12T23:51:55.934Z,88.09
2022-11-12T23:56:57.356Z,87.88
